createdAt,value
2023-01-01T00:02:44.738Z,9.30
2023-01-01T00:05:52.584Z,7.80
2023-01-01T00:09:18.099Z,7.70
2023-01-01T00:12:26.064Z,7.10
2023-01-01T00:15:34.488Z,6.90
2023-01-01T00:18:42.877Z,6.60
2023-01-01T00:21:50.901Z,6.30
2023-01-01T00:24:58.758Z,6.30
2023-01-01T00:28:06.969Z,6.80
2023-01-01T00:31:18.251Z,6.30
2023-01-01T00:34:26.131Z,6.40
2023-01-01T00:37:34.033Z,6.20
2023-01-01T00:40:42.108Z,6.50
2023-01-01T00:43:49.854Z,6.10
2023-01-01T00:46:57.852Z,6.60
2023-01-01T00:50:06.114Z,6.20
2023-01-01T00:53:14.522Z,6.10
2023-01-01T00:56:22.811Z,5.80
2023-01-01T00:59:30.617Z,5.90
2023-01-01T01:02:38.859Z,6.30
2023-01-01T01:05:47.387Z,5.70
2023-01-01T01:08:55.055Z,6.40
2023-01-01T01:12:17.613Z,6.10
2023-01-01T01:15:26.760Z,5.90
2023-01-01T01:18:34.595Z,6.00
2023-01-01T01:21:42.863Z,6.10
2023-01-01T01:24:51.318Z,6.40
2023-01-01T01:27:59.049Z,7.10
2023-01-01T01:31:07.948Z,7.10
2023-01-01T01:34:21.192Z,6.40
2023-01-01T01:37:32.000Z,6.80
2023-01-01T01:40:43.264Z,7.00
2023-01-01T01:44:02.171Z,7.00
2023-01-01T01:47:15.992Z,7.10
2023-01-01T01:50:31.676Z,7.00
2023-01-01T01:53:43.861Z,6.90
2023-01-01T01:56:56.763Z,6.50
2023-01-01T02:00:10.864Z,6.60
2023-01-01T02:03:24.659Z,5.90
2023-01-01T02:06:36.677Z,6.00
2023-01-01T02:09:45.340Z,5.70
2023-01-01T02:12:53.211Z,5.70
2023-01-01T02:16:13.860Z,6.50
2023-01-01T02:19:38.418Z,6.50
2023-01-01T02:23:11.704Z,6.00
2023-01-01T02:26:44.811Z,6.20
2023-01-01T02:29:57.724Z,5.70
2023-01-01T02:33:12.499Z,6.00
2023-01-01T02:36:23.582Z,5.80
2023-01-01T02:39:37.117Z,5.60
2023-01-01T02:42:46.330Z,5.60
2023-01-01T02:45:54.600Z,5.80
2023-01-01T02:49:09.693Z,6.10
2023-01-01T02:52:40.205Z,6.50
2023-01-01T02:56:06.427Z,6.00
2023-01-01T02:59:49.300Z,6.40
2023-01-01T03:03:17.472Z,6.30
2023-01-01T03:06:36.644Z,6.10
2023-01-01T03:09:56.370Z,6.60
2023-01-01T03:13:10.746Z,6.50
2023-01-01T03:16:30.606Z,6.30
2023-01-01T03:19:43.399Z,6.60
2023-01-01T03:22:55.469Z,7.60
2023-01-01T03:26:13.442Z,7.50
2023-01-01T03:29:23.304Z,7.80
2023-01-01T03:36:02.480Z,6.40
2023-01-01T03:39:17.421Z,7.30
2023-01-01T03:42:37.297Z,7.10
2023-01-01T03:52:32.466Z,6.10
2023-01-01T03:55:47.698Z,6.60
2023-01-01T03:59:05.025Z,6.40
2023-01-01T04:02:17.267Z,6.50
2023-01-01T04:05:26.860Z,6.20
2023-01-01T04:08:37.598Z,6.40
2023-01-01T04:12:05.451Z,5.70
2023-01-01T04:15:14.458Z,6.00
2023-01-01T04:18:22.133Z,5.80
2023-01-01T04:21:29.988Z,6.50
2023-01-01T04:24:37.680Z,5.20
2023-01-01T04:27:46.233Z,5.60
2023-01-01T04:34:01.269Z,5.70
2023-01-01T04:37:13.185Z,5.70
2023-01-01T04:40:22.248Z,5.40
2023-01-01T04:43:30.052Z,5.30
2023-01-01T04:46:37.951Z,5.50
2023-01-01T04:49:46.168Z,5.50
2023-01-01T04:52:54.662Z,6.30
2023-01-01T04:56:09.020Z,5.40
2023-01-01T04:59:17.209Z,5.30
2023-01-01T05:02:25.642Z,5.00
2023-01-01T05:05:33.646Z,4.70
2023-01-01T05:08:43.443Z,4.80
2023-01-01T05:14:58.211Z,4.30
2023-01-01T05:18:06.685Z,5.50
2023-01-01T05:21:19.455Z,5.90
2023-01-01T05:24:27.300Z,5.30
2023-01-01T05:27:35.004Z,5.60
2023-01-01T05:30:44.755Z,5.70
2023-01-01T05:33:54.379Z,5.50
2023-01-01T05:37:02.175Z,6.20
2023-01-01T05:40:12.902Z,7.60
2023-01-01T05:43:22.760Z,8.40
2023-01-01T05:49:36.788Z,7.90
2023-01-01T05:52:44.490Z,8.50
2023-01-01T05:55:58.484Z,9.80
2023-01-01T05:59:06.162Z,9.80
2023-01-01T06:02:14.592Z,9.60
2023-01-01T06:05:22.670Z,9.10
2023-01-01T06:08:30.646Z,9.20
2023-01-01T06:11:38.527Z,9.00
2023-01-01T06:14:46.394Z,9.00
2023-01-01T06:17:54.317Z,9.50
2023-01-01T06:21:10.001Z,10.70
2023-01-01T06:24:18.551Z,10.40
2023-01-01T06:27:26.443Z,10.40
2023-01-01T06:30:34.634Z,9.70
2023-01-01T06:33:43.894Z,9.50
2023-01-01T06:36:51.676Z,9.30
2023-01-01T06:39:59.931Z,9.60
2023-01-01T06:43:08.053Z,8.90
2023-01-01T06:46:20.534Z,8.70
2023-01-01T06:49:28.363Z,9.20
2023-01-01T06:52:36.922Z,10.40
2023-01-01T06:55:55.060Z,10.40
2023-01-01T06:59:05.169Z,10.80
2023-01-01T07:02:15.037Z,10.30
2023-01-01T07:05:23.194Z,10.70
2023-01-01T07:08:31.261Z,11.30
2023-01-01T07:11:40.053Z,13.30
2023-01-01T07:14:48.296Z,14.20
2023-01-01T07:17:56.392Z,13.60
2023-01-01T07:21:07.745Z,15.60
2023-01-01T07:24:17.890Z,16.20
2023-01-01T07:27:25.618Z,16.60
2023-01-01T07:30:33.310Z,16.90
2023-01-01T07:33:41.336Z,14.20
2023-01-01T07:36:49.557Z,14.70
2023-01-01T07:39:57.450Z,13.80
2023-01-01T07:43:05.380Z,13.60
2023-01-01T07:46:19.029Z,13.70
2023-01-01T07:49:27.024Z,11.70
2023-01-01T07:52:34.896Z,14.00
2023-01-01T07:55:42.689Z,14.10
2023-01-01T07:58:50.657Z,14.10
2023-01-01T08:01:59.216Z,12.50
2023-01-01T08:05:08.143Z,12.30
2023-01-01T08:08:16.308Z,13.20
2023-01-01T08:11:24.220Z,10.80
2023-01-01T08:14:34.016Z,10.70
2023-01-01T08:17:46.469Z,11.00
2023-01-01T08:20:57.750Z,10.20
2023-01-01T08:24:05.639Z,10.40
2023-01-01T08:27:17.419Z,12.20
2023-01-01T08:30:25.853Z,12.50
2023-01-01T08:33:33.753Z,11.60
2023-01-01T08:36:42.332Z,11.70
2023-01-01T08:39:54.467Z,12.70
2023-01-01T08:43:02.165Z,12.10
2023-01-01T08:46:10.108Z,12.20
2023-01-01T08:49:18.051Z,11.90
2023-01-01T08:52:26.842Z,11.30
2023-01-01T08:55:34.746Z,11.00
2023-01-01T08:58:44.992Z,12.90
2023-01-01T09:01:52.953Z,11.50
2023-01-01T09:05:01.455Z,11.90
2023-01-01T09:08:09.526Z,12.20
2023-01-01T09:11:27.642Z,12.90
2023-01-01T09:14:36.087Z,12.20
2023-01-01T09:17:44.070Z,11.30
2023-01-01T09:20:51.888Z,13.70
2023-01-01T09:24:07.147Z,12.50
2023-01-01T09:27:14.855Z,12.30
2023-01-01T09:30:22.847Z,12.80
2023-01-01T09:33:30.557Z,11.60
2023-01-01T09:36:38.743Z,12.20
2023-01-01T09:39:47.263Z,14.80
2023-01-01T09:43:08.055Z,14.40
2023-01-01T09:46:16.524Z,13.80
2023-01-01T09:49:35.787Z,13.00
2023-01-01T09:52:52.018Z,8.50
2023-01-01T09:56:03.712Z,13.00
2023-01-01T09:59:13.646Z,14.50
2023-01-01T10:02:48.096Z,13.40
2023-01-01T10:06:17.060Z,10.70
2023-01-01T10:09:34.786Z,13.40
2023-01-01T10:12:55.157Z,13.60
2023-01-01T10:16:09.537Z,13.50
2023-01-01T10:19:31.761Z,12.70
2023-01-01T10:22:48.503Z,13.10
2023-01-01T10:25:59.643Z,12.40
2023-01-01T10:29:19.874Z,13.70
2023-01-01T10:32:32.708Z,12.60
2023-01-01T10:35:48.283Z,13.70
2023-01-01T10:38:56.195Z,12.60
2023-01-01T10:42:05.937Z,14.10
2023-01-01T10:45:18.143Z,12.40
2023-01-01T10:48:28.714Z,12.10
2023-01-01T10:51:43.005Z,13.00
2023-01-01T10:54:52.763Z,12.10
2023-01-01T10:58:00.613Z,11.90
2023-01-01T11:01:12.593Z,13.40
2023-01-01T11:04:24.746Z,12.30
2023-01-01T11:07:36.855Z,11.70
2023-01-01T11:10:53.262Z,11.30
2023-01-01T11:14:06.664Z,11.50
2023-01-01T11:17:21.597Z,10.60
2023-01-01T11:20:29.857Z,10.90
2023-01-01T11:23:40.649Z,11.10
2023-01-01T11:26:54.223Z,11.20
2023-01-01T11:30:29.240Z,9.60
2023-01-01T11:33:41.258Z,11.90
2023-01-01T11:36:49.211Z,11.20
2023-01-01T11:39:59.781Z,12.10
2023-01-01T11:43:16.024Z,11.00
2023-01-01T11:46:29.479Z,10.80
2023-01-01T11:49:37.931Z,11.40
2023-01-01T11:52:49.129Z,11.60
2023-01-01T11:56:05.014Z,11.10
2023-01-01T11:59:22.368Z,10.40
2023-01-01T12:02:48.336Z,10.40
2023-01-01T12:06:03.535Z,11.30
2023-01-01T12:09:18.825Z,12.30
2023-01-01T12:12:35.672Z,11.60
2023-01-01T12:15:53.379Z,9.30
2023-01-01T12:19:11.783Z,9.40
2023-01-01T12:22:21.429Z,10.40
2023-01-01T12:25:39.934Z,10.90
2023-01-01T12:29:12.137Z,11.30
2023-01-01T12:32:35.927Z,11.20
2023-01-01T12:35:59.804Z,11.60
2023-01-01T12:40:17.018Z,10.50
2023-01-01T12:43:43.197Z,9.20
2023-01-01T12:47:03.428Z,9.80
2023-01-01T12:50:27.116Z,11.40
2023-01-01T12:53:48.133Z,11.70
2023-01-01T12:57:08.140Z,11.40
2023-01-01T13:00:20.797Z,11.80
2023-01-01T13:03:35.100Z,10.80
2023-01-01T13:06:48.638Z,11.60
2023-01-01T13:09:56.984Z,12.60
2023-01-01T13:13:06.314Z,11.60
2023-01-01T13:16:33.768Z,12.10
2023-01-01T13:19:42.037Z,11.70
2023-01-01T13:22:49.864Z,12.00
2023-01-01T13:26:42.665Z,12.20
2023-01-01T13:29:52.149Z,11.50
2023-01-01T13:33:27.553Z,11.70
2023-01-01T13:36:38.128Z,11.50
2023-01-01T13:40:00.891Z,11.60
2023-01-01T13:43:27.167Z,11.30
2023-01-01T13:46:51.882Z,12.60
2023-01-01T13:50:17.771Z,11.40
2023-01-01T13:53:59.981Z,13.10
2023-01-01T13:57:21.006Z,13.40
2023-01-01T14:00:36.071Z,12.70
2023-01-01T14:03:51.056Z,13.70
2023-01-01T14:07:24.924Z,11.60
2023-01-01T14:10:35.247Z,14.00
2023-01-01T14:13:45.837Z,13.40
2023-01-01T14:16:55.406Z,12.20
2023-01-01T14:20:06.222Z,12.60
2023-01-01T14:23:21.587Z,12.00
2023-01-01T14:26:32.135Z,12.90
2023-01-01T14:29:41.383Z,12.10
2023-01-01T14:32:58.839Z,12.90
2023-01-01T14:36:23.453Z,13.10
2023-01-01T14:39:34.009Z,11.50
2023-01-01T14:42:43.318Z,10.30
2023-01-01T14:45:53.391Z,13.40
2023-01-01T14:49:09.687Z,11.40
2023-01-01T14:52:26.283Z,13.40
2023-01-01T14:55:40.412Z,12.10
2023-01-01T14:58:48.394Z,13.40
2023-01-01T15:02:13.857Z,9.80
2023-01-01T15:05:35.677Z,9.50
2023-01-01T15:08:49.980Z,12.70
2023-01-01T15:11:59.802Z,12.90
2023-01-01T15:15:22.338Z,12.40
2023-01-01T15:18:45.880Z,14.30
2023-01-01T15:21:54.148Z,12.00
2023-01-01T15:25:03.255Z,11.80
2023-01-01T15:28:22.352Z,11.00
2023-01-01T15:31:40.713Z,13.60
2023-01-01T15:34:54.280Z,13.00
2023-01-01T15:38:06.233Z,12.40
2023-01-01T15:44:52.093Z,13.10
2023-01-01T15:48:34.247Z,13.30
2023-01-01T15:51:47.181Z,12.10
2023-01-01T15:54:55.521Z,11.90
2023-01-01T15:58:05.761Z,14.60
2023-01-01T16:01:21.603Z,14.30
2023-01-01T16:04:31.457Z,12.90
2023-01-01T16:10:46.559Z,13.10
2023-01-01T16:13:54.762Z,15.10
2023-01-01T16:17:02.993Z,14.90
2023-01-01T16:20:17.421Z,16.10
2023-01-01T16:23:25.624Z,13.30
2023-01-01T16:26:34.193Z,15.00
2023-01-01T16:29:43.517Z,14.70
2023-01-01T16:32:52.074Z,15.40
2023-01-01T16:35:59.925Z,9.90
2023-01-01T16:39:08.621Z,13.50
2023-01-01T16:42:17.872Z,14.40
2023-01-01T16:45:25.838Z,10.10
2023-01-01T16:48:33.896Z,12.40
2023-01-01T16:51:44.081Z,15.70
2023-01-01T16:54:52.182Z,16.10
2023-01-01T16:58:38.123Z,13.60
2023-01-01T17:01:28.718Z,11.70
2023-01-01T17:04:36.874Z,15.00
2023-01-01T17:07:44.783Z,13.90
2023-01-01T17:11:09.476Z,12.80
2023-01-01T17:14:17.881Z,14.50
2023-01-01T17:17:25.627Z,15.80
2023-01-01T17:20:35.463Z,14.00
2023-01-01T17:26:53.886Z,15.90
2023-01-01T17:30:01.713Z,17.20
2023-01-01T17:33:09.716Z,16.20
2023-01-01T17:36:18.675Z,13.80
2023-01-01T17:39:26.527Z,11.90
2023-01-01T17:42:35.914Z,15.20
2023-01-01T17:45:44.070Z,16.60
2023-01-01T17:48:53.095Z,16.10
2023-01-01T17:52:00.982Z,15.50
2023-01-01T17:55:10.952Z,13.40
2023-01-01T18:01:35.631Z,17.60
2023-01-01T18:04:43.798Z,11.00
2023-01-01T18:07:53.141Z,15.40
2023-01-01T18:11:01.576Z,9.80
2023-01-01T18:14:11.096Z,15.80
2023-01-01T18:17:19.133Z,12.10
2023-01-01T18:20:29.992Z,17.70
2023-01-01T18:23:40.228Z,8.00
2023-01-01T18:26:48.550Z,17.70
2023-01-01T18:29:58.431Z,16.60
2023-01-01T18:36:19.921Z,16.70
2023-01-01T18:39:30.923Z,14.00
2023-01-01T18:42:49.191Z,19.70
2023-01-01T18:45:58.551Z,20.60
2023-01-01T18:49:12.524Z,19.90
2023-01-01T18:52:26.722Z,20.50
2023-01-01T18:55:36.242Z,19.10
2023-01-01T18:58:45.626Z,14.20
2023-01-01T19:01:53.698Z,17.30
2023-01-01T19:05:24.558Z,13.30
2023-01-01T19:08:34.303Z,18.40
2023-01-01T19:14:51.599Z,15.40
2023-01-01T19:18:00.599Z,13.40
2023-01-01T19:21:23.424Z,18.40
2023-01-01T19:24:36.301Z,15.60
2023-01-01T19:27:47.121Z,20.10
2023-01-01T19:30:57.520Z,20.20
2023-01-01T19:34:05.420Z,11.90
2023-01-01T19:37:14.053Z,17.80
2023-01-01T19:40:24.048Z,18.90
2023-01-01T19:43:31.827Z,17.40
2023-01-01T19:46:39.863Z,21.00
2023-01-01T19:49:53.663Z,18.90
2023-01-01T19:53:03.507Z,22.60
2023-01-01T19:56:13.103Z,18.00
2023-01-01T19:59:20.757Z,18.80
2023-01-01T20:02:46.034Z,19.90
2023-01-01T20:05:54.899Z,17.20
2023-01-01T20:09:03.565Z,22.10
2023-01-01T20:12:13.697Z,19.50
2023-01-01T20:15:22.399Z,21.10
2023-01-01T20:18:30.534Z,21.80
2023-01-01T20:22:07.797Z,20.50
2023-01-01T20:25:18.060Z,21.70
2023-01-01T20:28:43.868Z,14.40
2023-01-01T20:31:54.157Z,19.20
2023-01-01T20:35:02.543Z,19.80
2023-01-01T20:38:11.480Z,22.10
2023-01-01T20:41:25.491Z,19.30
2023-01-01T20:44:33.658Z,20.90
2023-01-01T20:47:41.701Z,22.50
2023-01-01T20:50:50.014Z,19.70
2023-01-01T20:53:58.815Z,21.70
2023-01-01T20:57:07.222Z,21.60
2023-01-01T21:00:17.531Z,21.70
2023-01-01T21:03:25.523Z,19.80
2023-01-01T21:06:33.995Z,21.20
2023-01-01T21:09:42.867Z,21.60
2023-01-01T21:12:51.401Z,15.80
2023-01-01T21:16:08.973Z,21.10
2023-01-01T21:19:20.110Z,19.90
2023-01-01T21:22:33.320Z,21.20
2023-01-01T21:25:51.559Z,16.00
2023-01-01T21:29:06.755Z,20.10
2023-01-01T21:32:23.481Z,20.50
2023-01-01T21:35:38.830Z,19.60
2023-01-01T21:38:47.899Z,21.30
2023-01-01T21:42:00.284Z,20.60
2023-01-01T21:45:19.032Z,22.50
2023-01-01T21:48:35.820Z,18.10
2023-01-01T21:51:51.431Z,20.40
2023-01-01T21:55:00.766Z,20.10
2023-01-01T21:58:35.610Z,20.80
2023-01-01T22:01:47.113Z,13.10
2023-01-01T22:04:55.750Z,16.90
2023-01-01T22:08:24.203Z,20.40
2023-01-01T22:11:33.969Z,21.80
2023-01-01T22:14:46.035Z,22.10
2023-01-01T22:17:55.903Z,20.20
2023-01-01T22:24:35.621Z,21.10
2023-01-01T22:27:45.305Z,20.50
2023-01-01T22:30:56.619Z,21.90
2023-01-01T22:34:13.647Z,21.20
2023-01-01T22:37:36.600Z,22.70
2023-01-01T22:40:48.412Z,20.60
2023-01-01T22:44:02.078Z,15.70
2023-01-01T22:47:17.836Z,19.40
2023-01-01T22:50:29.967Z,22.70
2023-01-01T22:53:37.802Z,18.90
2023-01-01T22:56:45.844Z,19.80
2023-01-01T22:59:53.773Z,20.40
2023-01-01T23:03:01.923Z,20.30
2023-01-01T23:06:11.898Z,20.00
2023-01-01T23:09:19.785Z,18.10
2023-01-01T23:12:28.409Z,23.00
2023-01-01T23:15:55.981Z,21.00
2023-01-01T23:19:04.757Z,20.30
2023-01-01T23:22:12.825Z,22.50
2023-01-01T23:25:24.292Z,22.00
2023-01-01T23:28:34.002Z,16.80
2023-01-01T23:31:44.941Z,21.40
2023-01-01T23:34:52.873Z,17.20
2023-01-01T23:38:02.187Z,11.30
2023-01-01T23:41:10.069Z,18.20
2023-01-01T23:44:18.074Z,18.70
2023-01-01T23:47:26.115Z,24.60
2023-01-01T23:50:34.249Z,15.30
2023-01-01T23:53:42.192Z,23.00
2023-01-01T23:56:50.042Z,21.60
2023-01-01T23:59:57.839Z,20.60
